createdAt,value
2023-03-08T00:00:35.817Z,5.32
2023-03-08T00:03:03.985Z,6.45
2023-03-08T00:05:30.888Z,3.88
2023-03-08T00:07:58.045Z,3.67
2023-03-08T00:10:25.278Z,3.33
2023-03-08T00:12:52.359Z,2.35
2023-03-08T00:15:19.528Z,3.03
2023-03-08T00:17:46.418Z,3.95
2023-03-08T00:20:14.207Z,3.65
2023-03-08T00:22:42.287Z,3.03
2023-03-08T00:25:11.003Z,5.25
2023-03-08T00:27:38.638Z,4.57
2023-03-08T00:30:06.683Z,2.95
2023-03-08T00:32:33.783Z,4.70
2023-03-08T00:35:00.724Z,5.93
2023-03-08T00:37:27.806Z,4.95
2023-03-08T00:39:54.994Z,2.80
2023-03-08T00:42:22.766Z,4.07
2023-03-08T00:44:49.992Z,4.43
2023-03-08T00:47:17.298Z,4.47
2023-03-08T00:49:45.034Z,3.00
2023-03-08T00:52:12.017Z,5.10
2023-03-08T00:54:39.019Z,3.70
2023-03-08T00:57:06.217Z,4.50
2023-03-08T00:59:33.272Z,5.60
2023-03-08T01:02:01.085Z,5.93
2023-03-08T01:04:28.345Z,6.00
2023-03-08T01:06:55.376Z,6.25
2023-03-08T01:09:22.334Z,6.15
2023-03-08T01:11:49.149Z,5.10
2023-03-08T01:14:16.173Z,6.15
2023-03-08T01:16:43.254Z,4.03
2023-03-08T01:19:11.304Z,4.25
2023-03-08T01:21:38.649Z,3.80
2023-03-08T01:24:06.198Z,4.80
2023-03-08T01:26:33.158Z,3.00
2023-03-08T01:29:01.322Z,6.30
2023-03-08T01:31:30.088Z,5.45
2023-03-08T01:33:58.253Z,4.88
2023-03-08T01:36:27.011Z,3.33
2023-03-08T01:38:54.328Z,5.10
2023-03-08T01:41:29.058Z,5.82
2023-03-08T01:46:33.038Z,4.15
2023-03-08T01:49:23.071Z,5.53
2023-03-08T01:52:07.282Z,4.85
2023-03-08T01:54:57.493Z,4.33
2023-03-08T01:57:39.085Z,12.55
2023-03-08T02:00:10.164Z,6.50
2023-03-08T02:02:59.863Z,4.25
2023-03-08T02:05:27.461Z,5.90
2023-03-08T02:07:54.370Z,7.28
2023-03-08T02:10:21.675Z,7.05
2023-03-08T02:12:49.030Z,6.25
2023-03-08T02:15:20.340Z,6.88
2023-03-08T02:17:48.130Z,5.25
2023-03-08T02:20:28.231Z,7.72
2023-03-08T02:22:55.237Z,7.03
2023-03-08T02:25:25.174Z,7.68
2023-03-08T02:27:54.194Z,7.22
2023-03-08T02:30:29.386Z,6.28
2023-03-08T02:32:56.374Z,5.20
2023-03-08T02:35:23.378Z,6.13
2023-03-08T02:37:50.514Z,6.07
2023-03-08T02:40:17.545Z,6.28
2023-03-08T02:42:44.536Z,5.68
2023-03-08T02:45:11.648Z,8.02
2023-03-08T02:47:38.792Z,5.40
2023-03-08T02:50:06.516Z,6.65
2023-03-08T02:52:33.508Z,6.20
2023-03-08T02:55:00.539Z,5.55
2023-03-08T02:57:27.512Z,5.82
2023-03-08T02:59:54.480Z,6.00
2023-03-08T03:02:21.491Z,7.18
2023-03-08T03:04:48.316Z,4.80
2023-03-08T03:07:15.362Z,13.02
2023-03-08T03:09:42.317Z,7.65
2023-03-08T03:12:09.383Z,5.13
2023-03-08T03:14:36.404Z,7.35
2023-03-08T03:17:03.619Z,7.40
2023-03-08T03:19:30.506Z,4.80
2023-03-08T03:21:57.504Z,8.88
2023-03-08T03:24:24.710Z,5.35
2023-03-08T03:26:51.829Z,8.63
2023-03-08T03:29:18.869Z,7.10
2023-03-08T03:31:46.321Z,10.68
2023-03-08T03:34:13.078Z,5.22
2023-03-08T03:36:40.084Z,4.55
2023-03-08T03:39:07.133Z,6.55
2023-03-08T03:41:34.109Z,5.68
2023-03-08T03:44:01.084Z,6.93
2023-03-08T03:46:27.913Z,4.47
2023-03-08T03:48:54.854Z,4.85
2023-03-08T03:51:23.250Z,5.25
2023-03-08T03:53:50.520Z,4.03
2023-03-08T03:56:23.589Z,7.93
2023-03-08T03:58:51.657Z,4.43
2023-03-08T04:01:28.694Z,6.70
2023-03-08T04:03:57.342Z,6.50
2023-03-08T04:06:25.663Z,5.22
2023-03-08T04:08:54.277Z,5.95
2023-03-08T04:11:26.034Z,3.60
2023-03-08T04:13:53.205Z,5.55
2023-03-08T04:16:31.809Z,3.88
2023-03-08T04:19:04.127Z,3.92
2023-03-08T04:21:31.415Z,4.65
2023-03-08T04:24:00.703Z,11.25
2023-03-08T04:26:28.091Z,6.50
2023-03-08T04:28:56.578Z,6.40
2023-03-08T04:31:28.905Z,6.18
2023-03-08T04:33:56.025Z,3.95
2023-03-08T04:36:23.470Z,4.50
2023-03-08T04:38:51.140Z,8.88
2023-03-08T04:41:18.783Z,4.68
2023-03-08T04:43:48.898Z,7.68
2023-03-08T04:46:17.287Z,4.97
2023-03-08T04:48:44.855Z,3.60
2023-03-08T04:51:13.512Z,4.57
2023-03-08T04:53:41.751Z,4.13
2023-03-08T04:56:09.268Z,5.05
2023-03-08T04:58:37.321Z,5.88
2023-03-08T05:01:16.441Z,2.42
2023-03-08T05:03:43.840Z,4.00
2023-03-08T05:06:11.631Z,3.20
2023-03-08T05:08:38.563Z,4.40
2023-03-08T05:11:05.951Z,3.72
2023-03-08T05:13:35.756Z,9.55
2023-03-08T05:16:04.396Z,3.88
2023-03-08T05:18:31.606Z,2.75
2023-03-08T05:21:03.940Z,3.53
2023-03-08T05:23:31.461Z,4.60
2023-03-08T05:26:00.480Z,7.63
2023-03-08T05:28:29.614Z,4.45
2023-03-08T05:31:08.716Z,5.40
2023-03-08T05:33:36.517Z,4.40
2023-03-08T05:36:04.215Z,2.92
2023-03-08T05:38:31.464Z,6.03
2023-03-08T05:41:02.649Z,4.78
2023-03-08T05:43:29.585Z,4.50
2023-03-08T05:46:03.296Z,5.13
2023-03-08T05:48:31.550Z,2.25
2023-03-08T05:50:58.793Z,5.50
2023-03-08T05:53:26.086Z,5.75
2023-03-08T05:55:52.957Z,7.28
2023-03-08T05:58:22.848Z,5.05
2023-03-08T06:00:49.646Z,4.15
2023-03-08T06:03:16.668Z,5.07
2023-03-08T06:05:43.621Z,5.75
2023-03-08T06:08:10.594Z,3.72
2023-03-08T06:10:37.587Z,3.45
2023-03-08T06:13:04.630Z,3.05
2023-03-08T06:15:31.351Z,4.60
2023-03-08T06:17:58.166Z,4.15
2023-03-08T06:20:24.990Z,3.25
2023-03-08T06:22:51.964Z,3.90
2023-03-08T06:25:20.759Z,4.55
2023-03-08T06:27:47.898Z,3.50
2023-03-08T06:30:14.889Z,4.13
2023-03-08T06:32:43.132Z,4.38
2023-03-08T06:35:10.343Z,5.35
2023-03-08T06:37:37.454Z,4.45
2023-03-08T06:40:05.922Z,2.88
2023-03-08T06:42:41.075Z,4.15
2023-03-08T06:45:09.939Z,3.72
2023-03-08T06:47:36.763Z,3.03
2023-03-08T06:50:03.998Z,3.00
2023-03-08T06:52:37.791Z,4.15
2023-03-08T06:55:05.605Z,5.80
2023-03-08T06:57:33.016Z,3.47
2023-03-08T06:59:59.972Z,5.63
2023-03-08T07:02:26.802Z,3.10
2023-03-08T07:04:53.756Z,3.85
2023-03-08T07:07:22.929Z,8.07
2023-03-08T07:09:49.941Z,3.55
2023-03-08T07:12:16.800Z,3.05
2023-03-08T07:14:43.580Z,2.75
2023-03-08T07:17:10.534Z,8.48
2023-03-08T07:19:37.558Z,3.47
2023-03-08T07:22:04.354Z,4.13
2023-03-08T07:24:31.275Z,6.07
2023-03-08T07:26:58.315Z,5.30
2023-03-08T07:29:25.102Z,4.05
2023-03-08T07:31:51.985Z,4.57
2023-03-08T07:34:18.924Z,9.13
2023-03-08T07:36:45.795Z,2.70
2023-03-08T07:39:12.850Z,2.88
2023-03-08T07:41:39.732Z,3.38
2023-03-08T07:44:06.610Z,4.47
2023-03-08T07:46:33.645Z,6.72
2023-03-08T07:49:00.884Z,3.38
2023-03-08T07:51:27.583Z,4.30
2023-03-08T07:53:54.644Z,6.45
2023-03-08T07:56:21.593Z,6.88
2023-03-08T07:58:48.570Z,8.32
2023-03-08T08:01:15.618Z,2.85
2023-03-08T08:03:42.800Z,2.25
2023-03-08T08:06:10.203Z,3.58
2023-03-08T08:08:37.261Z,2.95
2023-03-08T08:11:11.636Z,2.60
2023-03-08T08:13:38.634Z,3.83
2023-03-08T08:16:07.403Z,3.30
2023-03-08T08:18:35.758Z,3.08
2023-03-08T08:21:05.658Z,2.88
2023-03-08T08:23:33.299Z,2.25
2023-03-08T08:26:00.598Z,3.15
2023-03-08T08:28:28.012Z,4.97
2023-03-08T08:31:10.616Z,8.63
2023-03-08T08:33:37.844Z,4.50
2023-03-08T08:36:09.434Z,2.80
2023-03-08T08:38:36.534Z,3.15
2023-03-08T08:41:05.450Z,6.07
2023-03-08T08:43:34.679Z,2.70
2023-03-08T08:46:02.690Z,3.30
2023-03-08T08:48:29.914Z,2.78
2023-03-08T08:50:58.810Z,2.83
2023-03-08T08:53:26.061Z,2.35
2023-03-08T08:55:53.121Z,3.92
2023-03-08T08:58:20.326Z,2.88
2023-03-08T09:00:48.522Z,3.20
2023-03-08T09:03:15.642Z,3.03
2023-03-08T09:05:45.021Z,7.60
2023-03-08T09:08:13.444Z,2.47
2023-03-08T09:10:42.405Z,5.15
2023-03-08T09:13:09.513Z,3.90
2023-03-08T09:15:37.584Z,2.05
2023-03-08T09:18:05.920Z,3.72
2023-03-08T09:20:32.867Z,3.88
2023-03-08T09:22:59.897Z,4.03
2023-03-08T09:25:26.893Z,2.55
2023-03-08T09:27:53.869Z,9.40
2023-03-08T09:30:21.170Z,3.75
2023-03-08T09:32:48.210Z,2.47
2023-03-08T09:35:15.788Z,4.13
2023-03-08T09:37:43.431Z,7.15
2023-03-08T09:40:20.489Z,4.32
2023-03-08T09:42:47.643Z,3.25
2023-03-08T09:45:27.375Z,2.45
2023-03-08T09:48:05.034Z,2.67
2023-03-08T09:50:47.006Z,4.63
2023-03-08T09:53:18.565Z,5.75
2023-03-08T09:55:51.775Z,5.65
2023-03-08T09:58:33.683Z,2.40
2023-03-08T10:01:16.333Z,5.35
2023-03-08T10:03:43.192Z,3.35
2023-03-08T10:06:54.702Z,4.00
2023-03-08T10:09:27.289Z,2.85
2023-03-08T10:12:23.153Z,5.78
2023-03-08T10:14:54.821Z,2.30
2023-03-08T10:17:26.311Z,3.92
2023-03-08T10:19:58.921Z,2.65
2023-03-08T10:22:32.171Z,2.78
2023-03-08T10:25:16.291Z,3.25
2023-03-08T10:27:43.269Z,2.58
2023-03-08T10:30:19.830Z,2.13
2023-03-08T10:32:49.877Z,2.40
2023-03-08T10:35:18.591Z,3.20
2023-03-08T10:37:51.851Z,5.10
2023-03-08T10:40:22.156Z,2.05
2023-03-08T10:43:07.462Z,2.58
2023-03-08T10:45:35.102Z,3.17
2023-03-08T10:48:04.279Z,2.20
2023-03-08T10:50:36.822Z,3.42
2023-03-08T10:53:20.009Z,3.67
2023-03-08T10:55:50.748Z,2.58
2023-03-08T10:58:35.016Z,1.73
2023-03-08T11:01:24.292Z,1.77
2023-03-08T11:04:03.307Z,3.35
2023-03-08T11:06:30.690Z,2.53
2023-03-08T11:09:00.309Z,2.30
2023-03-08T11:11:27.797Z,1.98
2023-03-08T11:13:55.629Z,2.40
2023-03-08T11:17:00.265Z,5.30
2023-03-08T11:19:32.656Z,2.22
2023-03-08T11:22:28.958Z,3.67
2023-03-08T11:25:29.771Z,2.75
2023-03-08T11:28:15.345Z,5.68
2023-03-08T11:31:03.413Z,2.95
2023-03-08T11:33:37.224Z,1.67
2023-03-08T11:36:21.426Z,1.97
2023-03-08T11:38:59.692Z,6.90
2023-03-08T11:41:26.782Z,3.67
2023-03-08T11:44:20.939Z,3.47
2023-03-08T11:47:21.442Z,3.42
2023-03-08T11:49:59.445Z,2.80
2023-03-08T11:53:04.745Z,3.75
2023-03-08T11:56:02.955Z,1.80
2023-03-08T11:58:49.321Z,2.25
2023-03-08T12:01:29.245Z,3.53
2023-03-08T12:04:06.618Z,1.17
2023-03-08T12:06:41.503Z,2.83
2023-03-08T12:11:51.666Z,5.15
2023-03-08T12:14:26.407Z,4.00
2023-03-08T12:17:32.845Z,2.60
2023-03-08T12:19:59.826Z,2.13
2023-03-08T12:22:42.210Z,1.42
2023-03-08T12:25:23.094Z,6.07
2023-03-08T12:27:52.563Z,4.70
2023-03-08T12:30:37.789Z,4.00
2023-03-08T12:33:06.947Z,1.52
2023-03-08T12:35:37.100Z,2.47
2023-03-08T12:38:18.755Z,2.72
2023-03-08T12:40:51.196Z,4.97
2023-03-08T12:43:20.980Z,3.30
2023-03-08T12:46:00.126Z,2.92
2023-03-08T12:48:32.153Z,0.93
2023-03-08T12:51:22.298Z,2.17
2023-03-08T12:53:49.347Z,7.55
2023-03-08T12:56:21.451Z,2.70
2023-03-08T12:58:53.322Z,3.58
2023-03-08T13:01:43.229Z,4.60
2023-03-08T13:04:39.807Z,1.75
2023-03-08T13:07:40.336Z,5.75
2023-03-08T13:10:22.853Z,1.85
2023-03-08T13:12:52.588Z,1.13
2023-03-08T13:15:24.024Z,1.42
2023-03-08T13:18:08.236Z,4.55
2023-03-08T13:20:41.934Z,2.28
2023-03-08T13:23:14.879Z,2.08
2023-03-08T13:25:41.824Z,2.50
2023-03-08T13:28:20.079Z,1.27
2023-03-08T13:30:57.889Z,1.10
2023-03-08T13:33:37.418Z,3.83
2023-03-08T13:36:14.662Z,2.22
2023-03-08T13:38:41.865Z,6.63
2023-03-08T13:41:08.899Z,2.33
2023-03-08T13:43:36.569Z,3.90
2023-03-08T13:46:16.818Z,2.08
2023-03-08T13:48:45.094Z,4.97
2023-03-08T13:51:19.168Z,2.45
2023-03-08T13:53:46.918Z,1.85
2023-03-08T13:56:26.128Z,2.17
2023-03-08T13:58:57.001Z,7.75
2023-03-08T14:01:26.471Z,4.88
2023-03-08T14:03:55.621Z,4.97
2023-03-08T14:06:34.037Z,1.88
2023-03-08T14:09:03.926Z,2.45
2023-03-08T14:11:42.504Z,3.17
2023-03-08T14:14:20.388Z,2.28
2023-03-08T14:16:47.685Z,6.38
2023-03-08T14:19:14.607Z,2.53
2023-03-08T14:21:53.378Z,3.53
2023-03-08T14:24:26.181Z,1.48
2023-03-08T14:27:06.813Z,3.35
2023-03-08T14:29:35.526Z,4.05
2023-03-08T14:32:11.941Z,0.80
2023-03-08T14:34:49.502Z,1.67
2023-03-08T14:37:31.136Z,1.35
2023-03-08T14:40:25.847Z,2.13
2023-03-08T14:42:56.174Z,1.20
2023-03-08T14:45:24.801Z,2.15
2023-03-08T14:47:55.810Z,1.75
2023-03-08T14:50:33.813Z,1.35
2023-03-08T14:53:02.617Z,2.30
2023-03-08T14:55:33.156Z,1.70
2023-03-08T14:58:13.209Z,1.13
2023-03-08T15:00:54.905Z,1.02
2023-03-08T15:03:21.926Z,8.50
2023-03-08T15:05:48.982Z,2.72
2023-03-08T15:08:17.852Z,3.35
2023-03-08T15:10:45.136Z,1.15
2023-03-08T15:13:15.119Z,2.10
2023-03-08T15:15:43.030Z,5.70
2023-03-08T15:18:10.258Z,2.10
2023-03-08T15:20:46.857Z,3.47
2023-03-08T15:23:31.169Z,2.72
2023-03-08T15:25:59.504Z,1.37
2023-03-08T15:28:27.048Z,2.65
2023-03-08T15:30:54.957Z,1.58
2023-03-08T15:33:23.041Z,2.75
2023-03-08T15:35:50.586Z,5.78
2023-03-08T15:38:19.184Z,4.50
2023-03-08T15:40:46.093Z,2.30
2023-03-08T15:43:13.249Z,2.28
2023-03-08T15:45:41.166Z,3.78
2023-03-08T15:48:13.295Z,1.38
2023-03-08T15:50:40.362Z,2.22
2023-03-08T15:53:07.587Z,2.15
2023-03-08T15:55:34.507Z,5.18
2023-03-08T15:58:01.232Z,1.23
2023-03-08T16:00:28.838Z,1.73
2023-03-08T16:02:55.940Z,1.25
2023-03-08T16:05:25.361Z,3.13
2023-03-08T16:08:03.368Z,1.50
2023-03-08T16:10:42.923Z,2.53
2023-03-08T16:13:10.172Z,5.13
2023-03-08T16:15:40.446Z,2.47
2023-03-08T16:18:07.448Z,1.88
2023-03-08T16:20:34.180Z,2.80
2023-03-08T16:23:01.136Z,1.08
2023-03-08T16:25:28.096Z,2.58
2023-03-08T16:27:55.062Z,1.85
2023-03-08T16:30:21.971Z,5.25
2023-03-08T16:32:52.808Z,4.60
2023-03-08T16:35:20.145Z,3.95
2023-03-08T16:37:47.628Z,1.58
2023-03-08T16:40:15.666Z,4.47
2023-03-08T16:42:42.851Z,2.90
2023-03-08T16:45:10.186Z,5.82
2023-03-08T16:47:37.143Z,2.67
2023-03-08T16:50:04.301Z,3.10
2023-03-08T16:52:31.278Z,2.85
2023-03-08T16:54:58.229Z,2.35
2023-03-08T16:57:25.097Z,2.00
2023-03-08T16:59:52.028Z,2.30
2023-03-08T17:02:21.340Z,1.85
2023-03-08T17:04:49.672Z,4.35
2023-03-08T17:07:17.352Z,1.98
2023-03-08T17:09:45.585Z,3.10
2023-03-08T17:12:12.586Z,3.45
2023-03-08T17:14:40.168Z,1.25
2023-03-08T17:17:07.156Z,3.08
2023-03-08T17:19:34.073Z,1.67
2023-03-08T17:22:01.012Z,3.35
2023-03-08T17:24:30.605Z,2.90
2023-03-08T17:26:57.546Z,3.42
2023-03-08T17:29:24.581Z,2.22
2023-03-08T17:31:51.722Z,3.45
2023-03-08T17:34:21.722Z,1.75
2023-03-08T17:36:48.653Z,1.40
2023-03-08T17:39:16.056Z,2.13
2023-03-08T17:41:44.742Z,2.67
2023-03-08T17:44:12.448Z,1.65
2023-03-08T17:46:39.662Z,2.15
2023-03-08T17:49:06.672Z,4.78
2023-03-08T17:51:34.052Z,3.72
2023-03-08T17:54:02.362Z,3.38
2023-03-08T17:56:31.519Z,2.15
2023-03-08T17:59:00.280Z,2.40
2023-03-08T18:01:29.395Z,3.30
2023-03-08T18:03:58.051Z,4.82
2023-03-08T18:06:31.071Z,2.90
2023-03-08T18:08:59.677Z,2.10
2023-03-08T18:11:27.522Z,3.70
2023-03-08T18:13:54.573Z,1.95
2023-03-08T18:16:23.534Z,1.52
2023-03-08T18:18:51.046Z,2.05
2023-03-08T18:21:19.551Z,1.75
2023-03-08T18:23:47.167Z,1.55
2023-03-08T18:26:16.005Z,2.38
2023-03-08T18:28:42.883Z,1.77
2023-03-08T18:31:11.800Z,4.43
2023-03-08T18:33:38.597Z,4.20
2023-03-08T18:36:05.941Z,3.05
2023-03-08T18:38:32.925Z,2.97
2023-03-08T18:40:59.977Z,3.67
2023-03-08T18:43:26.744Z,2.67
2023-03-08T18:45:55.750Z,1.70
2023-03-08T18:48:24.110Z,2.72
2023-03-08T18:50:51.050Z,2.17
2023-03-08T18:53:18.274Z,3.60
2023-03-08T18:56:00.178Z,6.10
2023-03-08T18:58:28.226Z,7.30
2023-03-08T19:00:59.141Z,2.42
2023-03-08T19:03:27.007Z,3.80
2023-03-08T19:05:54.202Z,6.55
2023-03-08T19:08:21.212Z,5.18
2023-03-08T19:10:48.377Z,4.15
2023-03-08T19:13:15.073Z,11.35
2023-03-08T19:15:42.328Z,3.42
2023-03-08T19:18:10.713Z,1.48
2023-03-08T19:20:39.692Z,3.05
2023-03-08T19:23:07.341Z,3.67
2023-03-08T19:25:55.778Z,2.70
2023-03-08T19:28:22.874Z,3.40
2023-03-08T19:30:49.778Z,7.00
2023-03-08T19:33:29.807Z,2.72
2023-03-08T19:35:57.555Z,12.77
2023-03-08T19:38:24.474Z,3.83
2023-03-08T19:40:51.337Z,4.07
2023-03-08T19:43:19.547Z,3.47
2023-03-08T19:45:50.302Z,3.38
2023-03-08T19:48:17.369Z,6.90
2023-03-08T19:50:47.426Z,7.18
2023-03-08T19:53:14.413Z,10.10
2023-03-08T19:55:52.569Z,10.80
2023-03-08T19:58:20.794Z,10.63
2023-03-08T20:00:48.327Z,7.97
2023-03-08T20:03:17.447Z,7.50
2023-03-08T20:05:46.922Z,7.40
2023-03-08T20:08:14.585Z,8.35
2023-03-08T20:10:41.615Z,12.90
2023-03-08T20:13:08.646Z,10.60
2023-03-08T20:15:35.699Z,4.53
2023-03-08T20:18:02.712Z,10.18
2023-03-08T20:20:29.858Z,13.30
2023-03-08T20:22:57.071Z,11.45
2023-03-08T20:25:24.480Z,9.20
2023-03-08T20:27:51.942Z,13.63
2023-03-08T20:30:18.910Z,10.95
2023-03-08T20:32:46.027Z,9.95
2023-03-08T20:35:15.258Z,14.18
2023-03-08T20:37:42.482Z,10.65
2023-03-08T20:40:13.893Z,10.50
2023-03-08T20:42:40.799Z,12.20
2023-03-08T20:45:08.146Z,16.67
2023-03-08T20:47:35.618Z,10.98
2023-03-08T20:50:02.687Z,11.90
2023-03-08T20:52:29.649Z,11.38
2023-03-08T20:54:56.890Z,10.27
2023-03-08T20:57:23.928Z,15.18
2023-03-08T20:59:50.937Z,16.75
2023-03-08T21:02:18.398Z,14.10
2023-03-08T21:04:45.206Z,13.90
2023-03-08T21:07:12.233Z,10.75
2023-03-08T21:09:39.257Z,11.68
2023-03-08T21:12:08.026Z,11.32
2023-03-08T21:14:34.818Z,6.97
2023-03-08T21:17:01.771Z,12.85
2023-03-08T21:19:28.666Z,8.45
2023-03-08T21:21:55.616Z,10.32
2023-03-08T21:24:23.413Z,13.20
2023-03-08T21:26:52.259Z,10.93
2023-03-08T21:29:21.390Z,14.88
2023-03-08T21:31:51.188Z,8.93
2023-03-08T21:34:19.279Z,5.72
2023-03-08T21:36:46.321Z,8.70
2023-03-08T21:39:13.802Z,16.10
2023-03-08T21:41:44.534Z,5.35
2023-03-08T21:44:14.827Z,9.32
2023-03-08T21:46:42.304Z,6.05
2023-03-08T21:49:16.852Z,6.15
2023-03-08T21:54:10.925Z,8.98
2023-03-08T21:56:37.892Z,11.35
2023-03-08T21:59:06.290Z,5.57
2023-03-08T22:01:34.095Z,9.05
2023-03-08T22:04:03.001Z,5.78
2023-03-08T22:06:30.470Z,9.25
2023-03-08T22:08:57.849Z,9.20
2023-03-08T22:11:26.098Z,10.10
2023-03-08T22:13:59.243Z,10.55
2023-03-08T22:16:27.613Z,9.02
2023-03-08T22:18:57.274Z,7.38
2023-03-08T22:21:24.343Z,8.85
2023-03-08T22:23:56.262Z,9.30
2023-03-08T22:26:25.192Z,8.18
2023-03-08T22:28:53.762Z,5.85
2023-03-08T22:31:23.322Z,7.80
2023-03-08T22:33:50.871Z,8.80
2023-03-08T22:36:19.413Z,7.47
2023-03-08T22:38:46.837Z,7.28
2023-03-08T22:41:17.430Z,5.30
2023-03-08T22:43:45.014Z,5.95
2023-03-08T22:46:24.612Z,7.03
2023-03-08T22:48:52.744Z,9.07
2023-03-08T22:51:21.698Z,4.18
2023-03-08T22:53:48.898Z,4.47
2023-03-08T22:56:23.361Z,6.60
2023-03-08T23:01:20.388Z,8.63
2023-03-08T23:03:49.822Z,6.55
2023-03-08T23:06:18.233Z,10.20
2023-03-08T23:08:45.991Z,7.45
2023-03-08T23:11:13.226Z,5.80
2023-03-08T23:13:41.367Z,4.32
2023-03-08T23:16:11.720Z,8.27
2023-03-08T23:18:38.868Z,6.22
2023-03-08T23:21:08.220Z,5.55
2023-03-08T23:23:35.476Z,4.72
2023-03-08T23:26:07.458Z,4.28
2023-03-08T23:28:35.849Z,4.43
2023-03-08T23:31:09.293Z,3.47
2023-03-08T23:33:36.251Z,3.13
2023-03-08T23:36:03.416Z,8.68
2023-03-08T23:38:30.769Z,9.57
2023-03-08T23:40:58.042Z,5.40
2023-03-08T23:43:25.512Z,9.07
2023-03-08T23:45:52.445Z,6.80
2023-03-08T23:48:19.400Z,9.20
2023-03-08T23:50:46.330Z,6.15
2023-03-08T23:53:13.165Z,7.55
2023-03-08T23:55:41.514Z,10.60
2023-03-08T23:58:08.801Z,4.90
